KRKP/RKP METAR and TAF weather

Enter ICAO airport designator
Station Type Date Time Source
KRKP METAR 2019/12/09 13:53 UTC NOAA

KRKP 091353Z AUTO 18007G16KT 2 1/2SM HZ OVC006 23/20 A2986 RMK AO2 SLP113 T02280200


Station Type Date Time Source
KRKP Decoded METAR 2019/12/09 13:53 UTC NOAA

ROCKPORT ARANSAS COUNTY AIRPORT , TX, United States (KRKP) 28-05N 97-03W 6M
Dec 09, 2019 - 08:53 AM EST / 2019.12.09 1353 UTC
Wind: from the S (180 degrees) at 8 MPH (7 KT) gusting to 18 MPH (16 KT):0
Visibility: 2 1/2 mile(s):0
Sky conditions: overcast
Weather: haze
Temperature: 73.0 F (22.8 C)
Dew Point: 68.0 F (20.0 C)
Relative Humidity: 84%
Pressure (altimeter): 29.86 in. Hg (1011 hPa)
ob: KRKP 091353Z AUTO 18007G16KT 2 1/2SM HZ OVC006 23/20 A2986 RMK AO2 SLP113 T02280200
cycle: 14

Station Type Date Time Source
KRKP TAF UTC NOAA

Error!

Example: see airport list